Viejas Grade (78) Station Data

Red Flag Warning: No
Fire Weather Zone: 258
SDGE Region: Eastern
Lat/Lon: 32.864/-116.662

Observations

Time Wind Speed/Gust Temp(F) RH Fuel Moist Fuel Temp(F) Dewpt(F) Tmax(F) Tmin(F) Accum Precip 10-min Precip SL Press(mb)
4/29 11:50pm 44 4 G 6 56° 22% - - 18° 72.1° 54.7° - - -
4/29 11:40pm 40 5 G 7 56° 23% - - 19° 72.1° 54.7° - - -
4/29 11:30pm 48 5 G 7 56° 23% - - 19° 72.1° 54.7° - - -
4/29 11:20pm 36 6 G 6 56° 23% - - 19° 72.1° 54.7° - - -
4/29 11:10pm 47 7 G 10 57° 24% - - 21° 72.1° 54.7° - - -
4/29 11:00pm 50 7 G 11 56° 26% - - 22° 72.1° 54.7° - - -
4/29 10:50pm 37 5 G 6 56° 27% - - 22° 72.1° 54.7° - - -
4/29 10:40pm 32 6 G 9 56° 27% - - 23° 72.1° 54.7° - - -
4/29 10:30pm 41 7 G 9 58° 26% - - 23° 72.1° 54.7° - - -
4/29 10:20pm 43 7 G 10 57° 27% - - 23° 72.1° 54.7° - - -
4/29 10:10pm 34 6 G 7 57° 26% - - 23° 72.1° 54.7° - - -
4/29 10:00pm 45 6 G 9 57° 27% - - 24° 72.1° 54.7° - - -
4/29 9:50pm 44 7 G 8 56° 30% - - 25° 72.1° 54.7° - - -
4/29 9:40pm 44 7 G 8 56° 30% - - 25° 72.1° 54.7° - - -
4/29 9:30pm 38 7 G 8 56° 29% - - 25° 72.1° 54.7° - - -
4/29 9:20pm 40 6 G 7 56° 29% - - 24° 72.1° 54.7° - - -
4/29 9:10pm 40 5 G 7 56° 29% - - 25° 72.1° 54.7° - - -
4/29 9:00pm 34 6 G 8 56° 30% - - 25° 72.1° 54.7° - - -
4/29 8:50pm 42 6 G 8 56° 31% - - 25° 72.1° 54.8° - - -
4/29 8:40pm 36 5 G 6 56° 30% - - 25° 72.1° 54.9° - - -
4/29 8:30pm 47 4 G 7 58° 27% - - 25° 72.1° 54.9° - - -
4/29 8:20pm 55 4 G 6 57° 28% - - 24° 72.1° 54.9° - - -
4/29 8:10pm 38 3 G 6 57° 28% - - 24° 72.1° 54.9° - - -
4/29 8:00pm 349 6 G 7 61° 24% - - 23° 72.1° 54.9° - - -
4/29 7:50pm 353 5 G 6 62° 21% - - 22° 72.1° 54.9° - - -
4/29 7:40pm 331 5 G 6 62° 20% - - 21° 72.1° 54.9° - - -
4/29 7:30pm 319 5 G 6 62° 21% - - 21° 72.1° 54.9° - - -
4/29 7:20pm 321 4 G 6 62° 20% - - 21° 72.1° 54.9° - - -
4/29 7:10pm 333 2 G 5 63° 20% - - 21° 72.1° 54.9° - - -
4/29 7:00pm 276 1 G 4 64° 20% - - 22° 72.1° 54.9° - - -
4/29 6:50pm 333 4 G 6 65° 19% - - 21° 72.1° 54.9° - - -
4/29 6:40pm 340 4 G 8 66° 18% - - 21° 72.1° 54.9° - - -
4/29 6:30pm 268 4 G 8 67° 17% - - 21° 72.1° 54.9° - - -
4/29 6:20pm 253 4 G 8 67° 17% - - 20° 72.1° 54.9° - - -
4/29 6:10pm 233 8 G 12 67° 17% - - 20° 72.1° 54.9° - - -
4/29 6:00pm 228 10 G 15 67° 16% - - 20° 72.1° 54.9° - - -
4/29 5:50pm 221 11 G 16 68° 16% - - 20° 72.1° 54.9° - - -
4/29 5:40pm 219 10 G 16 68° 16% - - 21° 72.1° 54.9° - - -
4/29 5:30pm 219 11 G 16 69° 15% - - 20° 72.1° 54.9° - - -
4/29 5:20pm 99 6 G 12 71° 12% - - 15° 72.1° 54.9° - - -
4/29 5:10pm 78 9 G 17 70° 10% - - 12° 72.1° 54.9° - - -
4/29 5:00pm 74 7 G 15 71° 11% - - 13° 72.1° 54.9° - - -
4/29 4:50pm 58 7 G 13 71° 11% - - 14° 72.1° 54.9° - - -
4/29 4:40pm 55 7 G 12 71° 11% - - 14° 72° 54.9° - - -
4/29 4:30pm 69 9 G 13 71° 11% - - 13° 71.7° 54.9° - - -
4/29 4:20pm 61 9 G 17 70° 11% - - 13° 71.5° 54.9° - - -
4/29 4:10pm 26 8 G 17 70° 11% - - 13° 70.9° 54.9° - - -
4/29 4:00pm 59 9 G 15 70° 11% - - 13° 70.9° 54.9° - - -
4/29 3:50pm 91 9 G 17 70° 11% - - 13° 70.9° 54.9° - - -
4/29 3:40pm 71 12 G 17 69° 11% - - 12° 70.9° 54.9° - - -
4/29 3:30pm 78 12 G 21 69° 11% - - 12° 70.9° 54.9° - - -
4/29 3:20pm 71 11 G 19 70° 11% - - 13° 70.9° 54.9° - - -
4/29 3:10pm 54 11 G 19 70° 11% - - 12° 70.9° 54.9° - - -
4/29 3:00pm 38 13 G 21 70° 10% - - 12° 70.5° 54.9° - - -
4/29 2:50pm 68 14 G 23 69° 11% - - 12° 70.4° 54.9° - - -
4/29 2:40pm 70 14 G 22 69° 11% - - 12° 70.4° 54.9° - - -
4/29 2:30pm 78 12 G 19 68° 11% - - 11° 69.7° 54.9° - - -
4/29 2:20pm 61 13 G 25 69° 11% - - 11° 69.7° 54.9° - - -
4/29 2:10pm 69 9 G 16 68° 12% - - 13° 69.7° 54.9° - - -
4/29 2:00pm 59 7 G 16 68° 12% - - 13° 69° 54.9° - - -
4/29 1:50pm 53 10 G 19 67° 12% - - 12° 68.4° 54.9° - - -
4/29 1:40pm 63 12 G 20 67° 12% - - 13° 68.4° 54.9° - - -
4/29 1:30pm 39 10 G 21 67° 12% - - 13° 68.4° 54.9° - - -
4/29 1:20pm 69 13 G 20 67° 12% - - 13° 67.9° 54.9° - - -
4/29 1:10pm 80 13 G 18 66° 13% - - 14° 67.9° 54.9° - - -
4/29 1:00pm 85 14 G 21 66° 13% - - 14° 67.9° 54.9° - - -
4/29 12:50pm 85 15 G 21 65° 13% - - 13° 67.4° 54.9° - - -
4/29 12:40pm 71 15 G 22 66° 13% - - 14° 67.4° 54.9° - - -
4/29 12:30pm 77 16 G 25 65° 14% - - 14° 67.4° 54.9° - - -
4/29 12:20pm 76 16 G 22 65° 13% - - 14° 66.1° 54.9° - - -
4/29 12:10pm 83 15 G 26 65° 13% - - 14° 66° 54.9° - - -
4/29 12:00pm 73 16 G 24 65° 13% - - 13° 65.6° 54.9° - - -
4/29 11:50am 60 19 G 28 64° 12% - - 11° 65.3° 54.9° - - -
4/29 11:40am 66 18 G 27 64° 13% - - 12° 65.2° 54.9° - - -
4/29 11:30am 69 17 G 36 64° 13% - - 12° 65.2° 54.9° - - -
4/29 11:20am 58 17 G 26 64° 13% - - 11° 65° 54.9° - - -
4/29 11:10am 65 18 G 28 64° 13% - - 11° 65° 54.9° - - -
4/29 11:00am 70 19 G 27 64° 11% - - 64.7° 54.9° - - -
4/29 10:50am 62 15 G 23 64° 12% - - 10° 64.7° 54.9° - - -
4/29 10:40am 61 17 G 26 64° 11% - - 64.7° 54.9° - - -
4/29 10:30am 70 17 G 26 64° 12% - - 11° 64.7° 54.9° - - -
4/29 10:20am 69 17 G 23 63° 13% - - 11° 64.1° 54.9° - - -
4/29 10:10am 72 16 G 27 63° 13% - - 11° 64.1° 54.9° - - -
4/29 10:00am 66 16 G 27 63° 12% - - 10° 64.1° 54.9° - - -
4/29 9:50am 72 16 G 27 63° 13% - - 11° 63.5° 54.9° - - -
4/29 9:40am 73 16 G 24 62° 13% - - 11° 63° 54.9° - - -
4/29 9:30am 64 15 G 23 62° 13% - - 10° 63° 54.9° - - -
4/29 9:20am 66 18 G 27 62° 12% - - 62.8° 54.9° - - -
4/29 9:10am 64 16 G 25 61° 13% - - 10° 62.1° 54.9° - - -
4/29 9:00am 72 17 G 26 60° 14% - - 11° 61.3° 54.9° - - -
4/29 8:50am 67 20 G 30 60° 14% - - 11° 61° 54.9° - - -
4/29 8:40am 70 20 G 33 59° 14% - - 10° 61° 54.9° - - -
4/29 8:30am 64 20 G 34 59° 14% - - 10° 61° 54.9° - - -
4/29 8:20am 70 16 G 23 58° 15% - - 10° 61° 54.9° - - -
4/29 8:10am 69 20 G 31 58° 14% - - 61° 54.9° - - -
4/29 8:00am 66 21 G 33 57° 14% - - 61° 54.9° - - -
4/29 7:50am 63 20 G 42 57° 14% - - 61° 54.9° - - -
4/29 7:40am 61 16 G 30 57° 14% - - 61° 54.9° - - -
4/29 7:30am 55 17 G 27 57° 14% - - 61° 54.9° - - -
4/29 7:20am 49 16 G 30 57° 13% - - 61° 54.9° - - -
4/29 7:10am 46 17 G 27 57° 13% - - 61° 54.9° - - -
4/29 7:00am 44 17 G 32 56° 13% - - 61° 54.9° - - -
4/29 6:50am 43 19 G 32 56° 13% - - 61° 54.9° - - -
4/29 6:40am 44 20 G 36 56° 14% - - 61° 54.9° - - -
4/29 6:30am 45 20 G 35 55° 14% - - 61° 54.9° - - -
4/29 6:20am 54 21 G 34 55° 14% - - 61° 54.9° - - -
4/29 6:10am 42 20 G 30 56° 14% - - 61° 54.9° - - -
4/29 6:00am 46 16 G 28 56° 14% - - 61° 55° - - -
4/29 5:50am 47 15 G 23 56° 14% - - 61° 55° - - -
4/29 5:40am 55 17 G 26 56° 14% - - 61° 55° - - -
4/29 5:30am 57 17 G 26 56° 14% - - 61° 55° - - -
4/29 5:20am 67 15 G 27 56° 14% - - 61° 55.2° - - -
4/29 5:10am 63 18 G 34 56° 14% - - 61° 55.5° - - -
4/29 5:00am 64 17 G 32 56° 14% - - 61° 55.5° - - -
4/29 4:50am 63 17 G 33 56° 14% - - 61° 55.5° - - -
4/29 4:40am 58 14 G 23 57° 14% - - 61° 55.5° - - -
4/29 4:30am 58 15 G 26 57° 14% - - 61° 55.5° - - -
4/29 4:20am 44 17 G 28 57° 14% - - 61° 55.5° - - -
4/29 4:10am 48 19 G 31 57° 14% - - 61° 55.5° - - -
4/29 4:00am 53 19 G 34 57° 14% - - 61° 55.5° - - -
4/29 3:50am 48 19 G 34 58° 15% - - 10° 61° 55.5° - - -
4/29 3:40am 59 18 G 32 58° 15% - - 10° 61° 55.5° - - -
4/29 3:30am 67 20 G 38 58° 15% - - 10° 61° 55.5° - - -
4/29 3:20am 66 20 G 31 58° 15% - - 11° 61° 55.5° - - -
4/29 3:10am 64 19 G 38 58° 15% - - 11° 61° 55.5° - - -
4/29 3:00am 56 18 G 37 59° 14% - - 10° 61° 55.5° - - -
4/29 2:50am 67 22 G 35 59° 14% - - 10° 61° 55.5° - - -
4/29 2:40am 67 19 G 33 59° 14% - - 10° 61° 55.5° - - -
4/29 2:30am 65 17 G 36 59° 14% - - 10° 61° 55.5° - - -
4/29 2:20am 59 16 G 25 59° 14% - - 10° 61° 55.5° - - -
4/29 2:10am 67 17 G 28 59° 14% - - 10° 61° 55.5° - - -
4/29 2:00am 63 17 G 43 60° 14% - - 10° 61° 55.5° - - -
4/29 1:50am 59 15 G 30 60° 14% - - 10° 61° 55.5° - - -
4/29 1:40am 61 17 G 32 60° 14% - - 11° 61° 55.5° - - -
4/29 1:30am 46 14 G 25 60° 14% - - 11° 61° 55.5° - - -
4/29 1:20am 55 11 G 17 60° 14% - - 11° 61° 55.5° - - -
4/29 1:10am 66 9 G 18 60° 15% - - 13° 60.5° 55.5° - - -
4/29 1:00am 77 12 G 26 59° 17% - - 14° 59.9° 55.5° - - -
4/29 12:50am 83 9 G 14 57° 19% - - 16° 58° 55.5° - - -
4/29 12:40am 74 8 G 12 57° 21% - - 17° 57.8° 55.5° - - -
4/29 12:30am 71 10 G 14 56° 22% - - 18° 57.4° 55.5° - - -
4/29 12:20am 65 11 G 14 56° 24% - - 20° 56.8° 55.5° - - -
4/29 12:10am 60 12 G 14 56° 25% - - 21° 56.8° 55.5° - - -
4/29 12:00am 65 11 G 14 56° 27% - - 23° 70.6° 48.8° - - -
4/28 11:50pm 70 11 G 14 56° 28% - - 24° 70.6° 48.8° - - -
4/28 11:40pm 69 11 G 14 56° 31% - - 26° 70.6° 48.8° - - -
4/28 11:30pm 65 11 G 14 57° 33% - - 28° 70.6° 48.8° - - -
4/28 11:20pm 56 10 G 15 57° 34% - - 29° 70.6° 48.8° - - -
4/28 11:10pm 54 10 G 13 57° 40% - - 33° 70.6° 48.8° - - -
4/28 11:00pm 62 11 G 14 57° 46% - - 36° 70.6° 48.8° - - -
4/28 10:50pm 58 10 G 13 56° 48% - - 37° 70.6° 48.8° - - -
4/28 10:40pm 75 10 G 13 57° 49% - - 38° 70.6° 48.8° - - -
4/28 10:30pm 65 8 G 13 56° 50% - - 38° 70.6° 48.8° - - -
4/28 10:20pm 69 9 G 13 57° 47% - - 37° 70.6° 48.8° - - -
4/28 10:10pm 38 7 G 11 58° 41% - - 35° 70.6° 48.8° - - -
4/28 10:00pm 52 9 G 12 58° 44% - - 36° 70.6° 48.8° - - -
4/28 9:50pm 67 12 G 16 56° 49% - - 37° 70.6° 48.8° - - -
4/28 9:40pm 38 8 G 11 56° 47% - - 36° 70.6° 48.8° - - -
4/28 9:30pm 14 6 G 7 58° 45% - - 37° 70.6° 48.8° - - -
4/28 9:20pm 6 5 G 7 57° 46% - - 37° 70.6° 48.8° - - -
4/28 9:10pm 45 4 G 6 55° 51% - - 37° 70.6° 48.8° - - -
4/28 9:00pm 26 6 G 7 55° 50% - - 37° 70.6° 48.8° - - -
4/28 8:50pm 25 7 G 8 54° 52% - - 37° 70.6° 48.8° - - -
4/28 8:40pm 24 7 G 8 54° 52% - - 37° 70.6° 48.8° - - -
4/28 8:30pm 22 6 G 7 55° 51% - - 37° 70.6° 48.8° - - -
4/28 8:20pm 19 6 G 7 54° 53% - - 38° 70.6° 48.8° - - -
4/28 8:10pm 33 4 G 5 55° 51% - - 38° 70.6° 48.8° - - -
4/28 8:00pm 35 4 G 5 56° 50% - - 38° 70.6° 48.8° - - -
4/28 7:50pm 35 4 G 5 56° 49% - - 38° 70.6° 48.8° - - -
4/28 7:40pm 24 3 G 4 58° 47% - - 37° 70.6° 48.8° - - -
4/28 7:30pm 334 3 G 4 59° 44% - - 37° 70.6° 48.8° - - -
4/28 7:20pm 343 3 G 6 60° 43% - - 37° 70.6° 48.8° - - -
4/28 7:10pm 313 1 G 5 60° 43% - - 38° 70.6° 48.8° - - -
4/28 7:00pm 340 2 G 4 60° 44% - - 38° 70.6° 48.8° - - -
4/28 6:50pm 229 4 G 9 61° 43% - - 38° 70.6° 48.8° - - -
4/28 6:40pm 238 4 G 7 62° 42% - - 39° 70.6° 48.8° - - -
4/28 6:30pm 269 4 G 9 62° 44% - - 40° 70.6° 48.8° - - -
4/28 6:20pm 267 5 G 10 63° 44% - - 41° 70.6° 48.8° - - -
4/28 6:10pm 259 5 G 8 63° 45% - - 41° 70.6° 48.8° - - -
4/28 6:00pm 276 6 G 12 63° 45% - - 42° 70.6° 48.8° - - -